createdAt,value
2019-02-12T00:04:34.654Z,2.67
2019-02-12T00:09:38.681Z,2.50
2019-02-12T00:14:42.725Z,3.57
2019-02-12T00:19:46.731Z,2.43
2019-02-12T00:24:50.746Z,2.50
2019-02-12T00:29:54.730Z,2.40
2019-02-12T00:34:58.758Z,2.63
2019-02-12T00:40:02.755Z,3.03
2019-02-12T00:45:06.821Z,2.90
2019-02-12T00:50:10.875Z,2.20
2019-02-12T00:55:14.896Z,2.90
2019-02-12T01:00:18.881Z,3.10
2019-02-12T01:05:22.879Z,2.70
2019-02-12T01:10:26.905Z,3.03
2019-02-12T01:15:30.911Z,2.80
2019-02-12T01:20:34.914Z,2.43
2019-02-12T01:25:38.919Z,3.07
2019-02-12T01:30:42.936Z,2.90
2019-02-12T01:35:46.937Z,2.50
2019-02-12T01:40:50.922Z,2.73
2019-02-12T01:45:54.920Z,2.77
2019-02-12T01:50:58.930Z,2.20
2019-02-12T01:56:02.965Z,2.33
2019-02-12T02:01:06.992Z,3.67
2019-02-12T02:06:10.987Z,2.23
2019-02-12T02:11:15.035Z,2.20
2019-02-12T02:16:18.982Z,2.30
2019-02-12T02:21:23.009Z,2.00
2019-02-12T02:26:27.062Z,1.97
2019-02-12T02:31:31.069Z,1.80
2019-02-12T02:36:35.077Z,2.50
2019-02-12T02:41:39.093Z,2.17
2019-02-12T02:46:43.161Z,2.00
2019-02-12T02:51:53.709Z,2.70
2019-02-12T02:56:52.892Z,2.30
2019-02-12T03:01:56.879Z,2.40
2019-02-12T03:07:00.881Z,2.57
2019-02-12T03:12:04.878Z,2.43
2019-02-12T03:17:08.926Z,2.37
2019-02-12T03:22:12.899Z,2.50
2019-02-12T03:27:16.906Z,2.50
2019-02-12T03:32:20.924Z,2.27
2019-02-12T03:37:24.911Z,2.50
2019-02-12T03:42:28.902Z,2.20
2019-02-12T03:47:32.937Z,2.10
2019-02-12T03:52:36.931Z,2.67
2019-02-12T03:57:40.926Z,2.30
2019-02-12T04:03:02.057Z,2.17
2019-02-12T04:08:06.510Z,2.70
2019-02-12T04:13:10.485Z,2.60
2019-02-12T04:18:14.480Z,2.13
2019-02-12T04:23:18.486Z,2.33
2019-02-12T04:28:23.350Z,2.40
2019-02-12T04:33:27.360Z,2.83
2019-02-12T04:38:31.377Z,2.13
2019-02-12T04:43:35.378Z,1.70
2019-02-12T04:48:39.409Z,2.57
2019-02-12T04:53:43.437Z,2.83
2019-02-12T04:58:47.452Z,2.00
2019-02-12T05:03:51.456Z,2.00
2019-02-12T05:09:27.331Z,2.37
2019-02-12T05:14:31.333Z,2.33
2019-02-12T05:25:27.757Z,2.33
2019-02-12T05:30:31.769Z,2.70
2019-02-12T05:35:38.532Z,2.07
2019-02-12T05:40:42.521Z,2.33
2019-02-12T05:45:46.524Z,1.80
2019-02-12T05:50:50.537Z,1.97
2019-02-12T05:55:54.518Z,2.07
2019-02-12T06:00:58.510Z,2.63
2019-02-12T06:06:02.530Z,2.47
2019-02-12T06:11:06.546Z,3.23
2019-02-12T06:16:16.060Z,2.50
2019-02-12T06:21:20.081Z,2.97
2019-02-12T06:26:24.148Z,2.43
2019-02-12T06:31:28.143Z,2.47
2019-02-12T06:36:32.133Z,2.10
2019-02-12T06:41:36.229Z,2.50
2019-02-12T06:46:40.226Z,2.70
2019-02-12T06:51:44.233Z,2.67
2019-02-12T06:56:48.255Z,2.20
2019-02-12T07:01:53.825Z,2.77
2019-02-12T07:07:47.645Z,2.40
2019-02-12T07:13:51.235Z,2.40
2019-02-12T07:19:36.735Z,2.70
2019-02-12T07:25:26.657Z,2.20
2019-02-12T07:31:18.161Z,3.10
2019-02-12T07:36:47.010Z,8.87
2019-02-12T07:42:15.757Z,3.00
2019-02-12T07:47:55.819Z,5.90
2019-02-12T07:53:30.830Z,4.87
2019-02-12T07:58:46.984Z,3.10
2019-02-12T08:04:47.266Z,2.60
2019-02-12T08:10:41.938Z,2.63
2019-02-12T08:16:27.057Z,2.30
2019-02-12T08:21:44.070Z,2.20
2019-02-12T08:27:19.565Z,3.30
2019-02-12T08:33:22.599Z,2.93
2019-02-12T08:39:10.297Z,2.43
2019-02-12T08:44:32.057Z,2.90
2019-02-12T08:50:01.042Z,2.90
2019-02-12T08:55:58.184Z,2.63
2019-02-12T09:01:34.162Z,3.23
2019-02-12T09:07:37.639Z,2.60
2019-02-12T09:13:07.237Z,2.50
2019-02-12T09:18:42.018Z,2.97
2019-02-12T09:24:28.835Z,2.53
2019-02-12T09:29:47.234Z,2.23
2019-02-12T09:35:30.043Z,2.53
2019-02-12T09:40:57.775Z,3.00
2019-02-12T09:46:48.765Z,2.30
2019-02-12T09:52:19.933Z,2.93
2019-02-12T09:57:53.633Z,1.80
2019-02-12T10:03:41.961Z,2.60
2019-02-12T10:09:20.997Z,1.80
2019-02-12T10:14:51.688Z,2.30
2019-02-12T10:20:27.969Z,2.20
2019-02-12T10:25:38.170Z,2.73
2019-02-12T10:31:08.855Z,2.40
2019-02-12T10:36:12.862Z,3.50
2019-02-12T10:41:16.889Z,2.40
2019-02-12T10:46:20.890Z,1.60
2019-02-12T10:51:24.889Z,1.80
2019-02-12T10:56:28.906Z,3.00
2019-02-12T11:01:32.909Z,2.17
2019-02-12T11:06:36.916Z,2.10
2019-02-12T11:11:41.885Z,1.90
2019-02-12T11:16:45.874Z,1.90
2019-02-12T11:21:49.918Z,2.30
2019-02-12T11:26:53.867Z,2.20
2019-02-12T11:31:57.878Z,2.50
2019-02-12T11:37:01.895Z,2.63
2019-02-12T11:42:05.974Z,2.10
2019-02-12T11:47:10.004Z,1.97
2019-02-12T11:52:14.019Z,2.00
2019-02-12T11:57:18.015Z,2.63
2019-02-12T12:02:23.979Z,2.20
2019-02-12T12:07:28.050Z,1.93
2019-02-12T12:12:32.039Z,2.00
2019-02-12T12:17:36.052Z,3.00
2019-02-12T12:22:40.057Z,1.70
2019-02-12T12:27:44.060Z,1.73
2019-02-12T12:32:48.065Z,1.83
2019-02-12T12:37:52.076Z,1.83
2019-02-12T12:42:56.092Z,1.87
2019-02-12T12:48:00.084Z,1.90
2019-02-12T12:53:04.163Z,2.07
2019-02-12T12:58:08.107Z,1.50
2019-02-12T13:03:13.451Z,2.00
2019-02-12T13:08:17.599Z,1.93
2019-02-12T13:13:21.653Z,1.73
2019-02-12T13:18:25.669Z,2.10
2019-02-12T13:23:29.663Z,1.87
2019-02-12T13:28:33.705Z,2.30
2019-02-12T13:33:37.697Z,2.20
2019-02-12T13:38:41.714Z,1.90
2019-02-12T13:43:45.816Z,2.00
2019-02-12T13:48:50.036Z,2.00
2019-02-12T13:53:54.032Z,2.23
2019-02-12T13:58:58.323Z,1.90
2019-02-12T14:04:03.737Z,2.80
2019-02-12T14:09:08.206Z,2.30
2019-02-12T14:14:12.208Z,2.27
2019-02-12T14:19:16.352Z,2.10
2019-02-12T14:24:20.375Z,2.10
2019-02-12T14:29:24.384Z,2.40
2019-02-12T14:34:28.410Z,2.37
2019-02-12T14:39:32.392Z,2.17
2019-02-12T14:44:36.419Z,2.60
2019-02-12T14:49:40.438Z,2.27
2019-02-12T14:54:44.469Z,2.20
2019-02-12T14:59:48.471Z,2.67
2019-02-12T15:05:00.417Z,2.03
2019-02-12T15:09:59.988Z,2.27
2019-02-12T15:15:04.391Z,2.30
2019-02-12T15:20:08.865Z,2.77
2019-02-12T15:25:12.914Z,1.90
2019-02-12T15:30:16.929Z,2.00
2019-02-12T15:35:20.930Z,2.30
2019-02-12T15:40:24.972Z,2.10
2019-02-12T15:45:28.983Z,2.17
2019-02-12T15:50:32.996Z,2.00
2019-02-12T15:55:42.146Z,2.53
2019-02-12T16:00:43.443Z,2.57
2019-02-12T16:05:47.538Z,2.43
2019-02-12T16:10:51.560Z,3.90
2019-02-12T16:15:55.556Z,2.90
2019-02-12T16:20:59.571Z,2.70
2019-02-12T16:26:03.816Z,2.63
2019-02-12T16:31:07.842Z,2.73
2019-02-12T16:36:11.825Z,2.40
2019-02-12T16:41:15.852Z,2.63
2019-02-12T16:46:23.232Z,3.23
2019-02-12T16:51:27.415Z,4.30
2019-02-12T16:56:31.426Z,3.27
2019-02-12T17:01:35.611Z,3.00
2019-02-12T17:06:39.611Z,3.80
2019-02-12T17:11:43.654Z,4.13
2019-02-12T17:16:47.809Z,2.90
2019-02-12T17:21:51.793Z,6.53
2019-02-12T17:26:55.819Z,4.60
2019-02-12T17:31:59.842Z,3.93
2019-02-12T17:37:04.891Z,3.87
2019-02-12T17:42:08.936Z,3.60
2019-02-12T17:47:12.967Z,3.10
2019-02-12T17:52:16.980Z,3.03
2019-02-12T17:57:21.006Z,3.10
2019-02-12T18:02:25.021Z,3.20
2019-02-12T18:07:29.018Z,4.07
2019-02-12T18:12:33.045Z,4.33
2019-02-12T18:17:37.083Z,3.60
2019-02-12T18:22:41.144Z,4.47
2019-02-12T18:27:45.177Z,3.93
2019-02-12T18:32:49.195Z,3.40
2019-02-12T18:37:53.243Z,3.33
2019-02-12T18:42:57.303Z,4.20
2019-02-12T18:48:01.292Z,3.23
2019-02-12T18:53:05.283Z,4.50
2019-02-12T18:58:09.353Z,5.17
2019-02-12T19:03:13.393Z,5.50
2019-02-12T19:08:17.439Z,5.10
2019-02-12T19:13:21.500Z,6.30
2019-02-12T19:18:27.026Z,5.67
2019-02-12T19:23:31.048Z,5.67
2019-02-12T19:28:35.073Z,5.00
2019-02-12T19:33:39.185Z,5.63
2019-02-12T19:38:43.199Z,5.93
2019-02-12T19:43:47.232Z,5.30
2019-02-12T19:48:51.505Z,4.70
2019-02-12T19:53:55.639Z,3.50
2019-02-12T19:58:59.761Z,3.77
2019-02-12T20:04:03.890Z,3.23
2019-02-12T20:09:14.183Z,3.50
2019-02-12T20:14:18.407Z,3.37
2019-02-12T20:19:23.165Z,3.63
2019-02-12T20:24:27.846Z,5.43
2019-02-12T20:29:32.573Z,9.57
2019-02-12T20:34:37.517Z,7.30
2019-02-12T20:39:42.015Z,4.43
2019-02-12T20:44:48.478Z,5.17
2019-02-12T20:49:52.782Z,4.07
2019-02-12T20:54:57.058Z,4.37
2019-02-12T21:00:01.267Z,4.70
2019-02-12T21:05:05.873Z,4.87
2019-02-12T21:10:11.701Z,4.87
2019-02-12T21:15:17.941Z,4.13
2019-02-12T21:20:22.014Z,5.77
2019-02-12T21:25:26.042Z,4.37
2019-02-12T21:30:30.145Z,4.60
2019-02-12T21:35:34.171Z,4.10
2019-02-12T21:40:38.187Z,4.60
2019-02-12T21:45:42.203Z,4.13
2019-02-12T21:50:46.210Z,4.03
2019-02-12T21:55:50.289Z,4.10
2019-02-12T22:00:54.290Z,3.97
2019-02-12T22:05:58.290Z,4.23
2019-02-12T22:11:02.298Z,4.60
2019-02-12T22:16:06.298Z,6.57
2019-02-12T22:21:11.902Z,4.53
2019-02-12T22:26:15.892Z,4.53
2019-02-12T22:31:19.899Z,5.33
2019-02-12T22:36:23.899Z,4.60
2019-02-12T22:41:27.889Z,5.07
2019-02-12T22:46:31.903Z,5.10
2019-02-12T22:51:35.919Z,5.27
2019-02-12T22:56:39.915Z,5.50
2019-02-12T23:01:43.930Z,5.77
2019-02-12T23:06:47.924Z,6.70
2019-02-12T23:11:52.096Z,7.43
2019-02-12T23:16:56.075Z,7.83
2019-02-12T23:22:00.066Z,8.40
2019-02-12T23:27:04.091Z,9.17
2019-02-12T23:32:08.074Z,9.70
2019-02-12T23:37:12.079Z,11.30
2019-02-12T23:42:16.094Z,12.50
2019-02-12T23:47:20.098Z,13.73
2019-02-12T23:52:24.189Z,13.90
2019-02-12T23:57:28.180Z,14.20
